createdAt,value
2018-05-08T00:01:32.898Z,99.90
2018-05-08T00:04:00.319Z,99.90
2018-05-08T00:06:27.756Z,99.90
2018-05-08T00:08:56.683Z,99.90
2018-05-08T00:11:24.016Z,99.90
2018-05-08T00:13:51.420Z,99.90
2018-05-08T00:16:18.836Z,99.90
2018-05-08T00:18:46.239Z,99.90
2018-05-08T00:21:13.655Z,99.90
2018-05-08T00:23:41.090Z,99.90
2018-05-08T00:26:08.525Z,99.90
2018-05-08T00:28:35.936Z,99.90
2018-05-08T00:31:03.364Z,99.90
2018-05-08T00:33:30.769Z,99.90
2018-05-08T00:35:58.193Z,99.90
2018-05-08T00:38:26.949Z,99.90
2018-05-08T00:40:54.356Z,99.90
2018-05-08T00:43:21.780Z,99.90
2018-05-08T00:45:49.193Z,99.90
2018-05-08T00:48:16.616Z,99.90
2018-05-08T00:50:44.016Z,99.90
2018-05-08T00:53:11.435Z,99.90
2018-05-08T00:55:38.859Z,99.90
2018-05-08T00:58:06.269Z,99.90
2018-05-08T01:00:33.673Z,99.90
2018-05-08T01:03:01.876Z,99.90
2018-05-08T01:05:29.310Z,99.90
2018-05-08T01:07:56.724Z,99.90
2018-05-08T01:10:24.140Z,99.90
2018-05-08T01:12:51.568Z,99.90
2018-05-08T01:15:18.977Z,99.90
2018-05-08T01:17:46.435Z,99.90
2018-05-08T01:20:13.837Z,99.90
2018-05-08T01:22:42.031Z,99.90
2018-05-08T01:25:10.212Z,99.90
2018-05-08T01:27:37.741Z,99.90
2018-05-08T01:30:05.853Z,99.90
2018-05-08T01:32:34.040Z,99.90
2018-05-08T01:35:01.464Z,99.90
2018-05-08T01:37:28.884Z,99.90
2018-05-08T01:39:57.772Z,99.90
2018-05-08T01:42:25.204Z,99.90
2018-05-08T01:44:52.639Z,99.90
2018-05-08T01:47:20.061Z,99.90
2018-05-08T01:49:47.464Z,99.90
2018-05-08T01:52:15.669Z,99.90
2018-05-08T01:54:43.081Z,99.90
2018-05-08T01:57:10.502Z,99.90
2018-05-08T01:59:37.909Z,99.90
2018-05-08T02:02:05.326Z,99.90
2018-05-08T02:04:33.503Z,99.90
2018-05-08T02:07:01.684Z,99.90
2018-05-08T02:09:29.897Z,99.90
2018-05-08T02:11:57.573Z,99.90
2018-05-08T02:14:25.025Z,99.90
2018-05-08T02:16:53.236Z,99.90
2018-05-08T02:19:20.639Z,99.90
2018-05-08T02:21:48.054Z,99.90
2018-05-08T02:24:15.476Z,99.90
2018-05-08T02:26:42.896Z,99.90
2018-05-08T02:29:10.329Z,99.90
2018-05-08T02:31:37.743Z,99.90
2018-05-08T02:34:05.232Z,99.90
2018-05-08T02:36:32.666Z,99.90
2018-05-08T02:39:00.860Z,99.90
2018-05-08T02:41:28.292Z,99.90
2018-05-08T02:43:55.701Z,99.90
2018-05-08T02:46:23.129Z,99.90
2018-05-08T02:48:50.545Z,99.90
2018-05-08T02:51:17.963Z,99.90
2018-05-08T02:53:45.392Z,99.90
2018-05-08T02:56:12.829Z,99.90
2018-05-08T02:58:41.022Z,99.90
2018-05-08T03:01:09.221Z,99.90
2018-05-08T03:03:36.653Z,99.90
2018-05-08T03:06:04.065Z,99.90
2018-05-08T03:08:31.476Z,99.90
2018-05-08T03:10:58.892Z,99.90
2018-05-08T03:13:26.304Z,99.90
2018-05-08T03:15:53.754Z,99.90
2018-05-08T03:18:21.172Z,99.90
2018-05-08T03:20:48.597Z,99.90
2018-05-08T03:23:16.029Z,99.90
2018-05-08T03:25:43.428Z,99.90
2018-05-08T03:28:10.870Z,99.90
2018-05-08T03:30:38.282Z,99.90
2018-05-08T03:33:05.703Z,99.90
2018-05-08T03:35:33.179Z,99.90
2018-05-08T03:38:01.343Z,99.90
2018-05-08T03:40:28.764Z,99.90
2018-05-08T03:42:56.217Z,99.90
2018-05-08T03:45:23.647Z,99.90
2018-05-08T03:47:51.828Z,99.90
2018-05-08T03:50:20.043Z,99.90
2018-05-08T03:52:47.468Z,99.90
2018-05-08T03:55:14.908Z,99.90
2018-05-08T03:57:42.344Z,99.90
2018-05-08T04:00:09.767Z,99.90
2018-05-08T04:02:49.038Z,99.90
2018-05-08T04:05:29.150Z,99.90
2018-05-08T04:08:08.296Z,99.90
2018-05-08T04:10:35.705Z,99.90
2018-05-08T04:13:03.880Z,99.90
2018-05-08T04:15:31.389Z,99.90
2018-05-08T04:18:00.057Z,99.90
2018-05-08T04:20:29.160Z,99.90
2018-05-08T04:22:56.574Z,99.90
2018-05-08T04:25:25.603Z,99.90
2018-05-08T04:27:53.012Z,99.90
2018-05-08T04:30:21.217Z,99.90
2018-05-08T04:32:48.673Z,99.90
2018-05-08T04:35:16.863Z,99.90
2018-05-08T04:37:45.053Z,99.90
2018-05-08T04:40:13.249Z,99.90
2018-05-08T04:42:41.424Z,99.90
2018-05-08T04:45:09.597Z,99.90
2018-05-08T04:47:37.802Z,99.90
2018-05-08T04:50:05.224Z,99.90
2018-05-08T04:52:32.653Z,99.90
2018-05-08T04:55:00.066Z,99.90
2018-05-08T04:57:27.492Z,99.90
2018-05-08T04:59:54.928Z,99.90
2018-05-08T05:02:23.691Z,99.90
2018-05-08T05:04:51.212Z,99.90
2018-05-08T05:07:18.648Z,99.90
2018-05-08T05:09:46.826Z,99.90
2018-05-08T05:12:14.243Z,99.90
2018-05-08T05:14:41.669Z,99.90
2018-05-08T05:17:09.091Z,99.90
2018-05-08T05:19:36.502Z,99.90
2018-05-08T05:22:03.913Z,99.90
2018-05-08T05:24:31.403Z,99.90
2018-05-08T05:26:58.765Z,99.90
2018-05-08T05:29:26.229Z,99.90
2018-05-08T05:31:53.628Z,99.90
2018-05-08T05:34:21.044Z,99.90
2018-05-08T05:36:48.525Z,99.90
2018-05-08T05:39:16.718Z,99.90
2018-05-08T05:41:45.145Z,99.90
2018-05-08T05:44:12.560Z,99.90
2018-05-08T05:46:40.039Z,99.90
2018-05-08T05:49:07.444Z,99.90
2018-05-08T05:51:34.873Z,99.90
2018-05-08T05:54:02.283Z,99.90
2018-05-08T05:56:30.656Z,99.90
2018-05-08T05:58:58.073Z,99.90
2018-05-08T06:01:26.292Z,99.90
2018-05-08T06:03:54.469Z,99.90
2018-05-08T06:06:21.938Z,99.90
2018-05-08T06:08:49.296Z,99.90
2018-05-08T06:11:16.729Z,99.90
2018-05-08T06:13:44.205Z,99.90
2018-05-08T06:16:11.611Z,99.90
2018-05-08T06:18:39.050Z,99.90
2018-05-08T06:21:06.473Z,99.90
2018-05-08T06:23:33.910Z,99.90
2018-05-08T06:26:01.389Z,99.90
2018-05-08T06:28:29.654Z,99.90
2018-05-08T06:30:57.024Z,99.90
2018-05-08T06:33:25.221Z,99.90
2018-05-08T06:35:52.699Z,99.90
2018-05-08T06:38:21.054Z,99.90
2018-05-08T06:40:48.497Z,99.90
2018-05-08T06:43:15.916Z,99.90
2018-05-08T06:45:43.339Z,99.90
2018-05-08T06:48:10.865Z,99.90
2018-05-08T06:50:39.080Z,99.90
2018-05-08T06:53:06.544Z,99.90
2018-05-08T06:55:33.988Z,99.90
2018-05-08T06:58:02.688Z,99.90
2018-05-08T07:00:31.783Z,99.90
2018-05-08T07:02:59.979Z,99.90
2018-05-08T07:05:27.436Z,99.90
2018-05-08T07:07:55.683Z,99.90
2018-05-08T07:10:23.820Z,99.90
2018-05-08T07:12:51.261Z,99.90
2018-05-08T07:15:18.679Z,99.90
2018-05-08T07:17:46.100Z,99.90
2018-05-08T07:20:13.626Z,99.90
2018-05-08T07:22:41.046Z,99.90
2018-05-08T07:25:09.366Z,99.90
2018-05-08T07:27:37.541Z,99.90
2018-05-08T07:30:05.040Z,99.90
2018-05-08T07:32:32.382Z,99.90
2018-05-08T07:34:59.855Z,99.90
2018-05-08T07:37:27.268Z,99.90
2018-05-08T07:39:54.709Z,99.90
2018-05-08T07:42:22.137Z,99.90
2018-05-08T07:44:50.327Z,99.90
2018-05-08T07:47:18.515Z,99.90
2018-05-08T07:49:46.721Z,99.90
2018-05-08T07:52:14.147Z,99.90
2018-05-08T07:54:41.561Z,99.90
2018-05-08T07:57:08.974Z,99.90
2018-05-08T07:59:36.419Z,99.90
2018-05-08T08:02:03.828Z,99.90
2018-05-08T08:04:33.010Z,99.90
2018-05-08T08:07:00.421Z,99.90
2018-05-08T08:09:28.646Z,99.90
2018-05-08T08:11:56.097Z,99.90
2018-05-08T08:14:24.342Z,99.90
2018-05-08T08:16:51.737Z,99.90
2018-05-08T08:19:19.947Z,99.90
2018-05-08T08:21:47.432Z,99.90
2018-05-08T08:24:14.893Z,99.90
2018-05-08T08:26:42.348Z,99.90
2018-05-08T08:29:09.835Z,99.90
2018-05-08T08:31:37.242Z,99.90
2018-05-08T08:34:04.724Z,99.90
2018-05-08T08:36:32.150Z,99.90
2018-05-08T08:38:59.605Z,99.90
2018-05-08T08:41:27.024Z,99.90
2018-05-08T08:43:55.235Z,99.90
2018-05-08T08:46:22.653Z,99.90
2018-05-08T08:48:50.084Z,99.90
2018-05-08T08:51:17.513Z,99.90
2018-05-08T08:53:44.930Z,99.90
2018-05-08T08:56:12.365Z,99.90
2018-05-08T08:58:40.576Z,99.90
2018-05-08T09:01:08.011Z,99.90
2018-05-08T09:03:36.213Z,99.90
2018-05-08T09:06:04.805Z,99.90
2018-05-08T09:08:33.952Z,99.90
2018-05-08T09:11:01.363Z,99.90
2018-05-08T09:13:29.040Z,99.90
2018-05-08T09:15:56.433Z,99.90
2018-05-08T09:18:23.852Z,99.90
2018-05-08T09:20:51.270Z,99.90
2018-05-08T09:23:18.693Z,99.90
2018-05-08T09:25:46.108Z,99.90
2018-05-08T09:28:13.521Z,99.90
2018-05-08T09:30:40.959Z,99.90
2018-05-08T09:33:08.390Z,99.90
2018-05-08T09:35:35.801Z,99.90
2018-05-08T09:38:03.212Z,99.90
2018-05-08T09:40:30.653Z,99.90
2018-05-08T09:42:58.093Z,99.90
2018-05-08T09:45:25.557Z,99.90
2018-05-08T09:47:53.733Z,99.90
2018-05-08T09:50:21.150Z,99.90
2018-05-08T09:52:48.560Z,99.90
2018-05-08T09:55:16.783Z,99.90
2018-05-08T09:57:44.205Z,99.90
2018-05-08T10:00:11.661Z,99.90
2018-05-08T10:02:39.081Z,99.90
2018-05-08T10:05:06.754Z,99.90
2018-05-08T10:07:35.153Z,99.90
2018-05-08T10:10:02.596Z,99.90
2018-05-08T10:12:30.042Z,99.90
2018-05-08T10:14:57.461Z,99.90
2018-05-08T10:17:24.876Z,99.90
2018-05-08T10:19:52.300Z,99.80
2018-05-08T10:22:19.776Z,99.30
2018-05-08T10:24:47.324Z,98.90
2018-05-08T10:27:15.494Z,98.40
2018-05-08T10:29:42.920Z,98.40
2018-05-08T10:32:10.355Z,98.40
2018-05-08T10:34:37.759Z,98.30
2018-05-08T10:37:06.517Z,98.30
2018-05-08T10:39:33.928Z,98.30
2018-05-08T10:42:02.030Z,97.80
2018-05-08T10:44:29.433Z,97.90
2018-05-08T10:46:56.852Z,97.60
2018-05-08T10:49:24.372Z,98.20
2018-05-08T10:51:52.565Z,98.30
2018-05-08T10:54:19.984Z,98.30
2018-05-08T10:56:47.596Z,97.80
2018-05-08T10:59:15.752Z,98.10
2018-05-08T11:01:44.012Z,98.20
2018-05-08T11:04:11.418Z,98.20
2018-05-08T11:06:38.843Z,97.20
2018-05-08T11:09:07.076Z,97.30
2018-05-08T11:11:34.505Z,97.30
2018-05-08T11:14:01.927Z,96.80
2018-05-08T11:16:30.122Z,96.40
2018-05-08T11:18:57.628Z,96.40
2018-05-08T11:21:25.074Z,96.10
2018-05-08T11:23:52.492Z,96.40
2018-05-08T11:26:19.905Z,95.70
2018-05-08T11:28:47.384Z,95.20
2018-05-08T11:31:14.841Z,95.10
2018-05-08T11:33:42.326Z,95.20
2018-05-08T11:36:09.744Z,94.90
2018-05-08T11:38:37.373Z,94.70
2018-05-08T11:41:04.796Z,94.70
2018-05-08T11:43:33.009Z,94.40
2018-05-08T11:46:00.430Z,94.30
2018-05-08T11:48:28.670Z,93.80
2018-05-08T11:50:56.841Z,93.80
2018-05-08T11:53:24.285Z,93.80
2018-05-08T11:55:52.503Z,93.70
2018-05-08T11:58:20.659Z,93.20
2018-05-08T12:00:48.092Z,93.10
2018-05-08T12:03:15.522Z,92.80
2018-05-08T12:05:42.993Z,92.30
2018-05-08T12:08:10.555Z,91.30
2018-05-08T12:10:38.035Z,91.90
2018-05-08T12:13:05.503Z,91.20
2018-05-08T12:15:32.937Z,90.50
2018-05-08T12:18:01.170Z,89.20
2018-05-08T12:20:28.611Z,88.80
2018-05-08T12:22:56.102Z,85.80
2018-05-08T12:25:23.610Z,84.60
2018-05-08T12:27:51.037Z,81.20
2018-05-08T12:30:18.452Z,79.10
2018-05-08T12:32:45.878Z,78.10
2018-05-08T12:35:13.354Z,76.60
2018-05-08T12:37:40.811Z,74.50
2018-05-08T12:40:08.241Z,72.40
2018-05-08T12:42:35.643Z,69.90
2018-05-08T12:45:03.061Z,69.30
2018-05-08T12:47:30.524Z,67.80
2018-05-08T12:49:57.932Z,63.90
2018-05-08T12:52:26.154Z,60.70
2018-05-08T12:54:53.566Z,60.70
2018-05-08T12:57:21.092Z,59.60
2018-05-08T12:59:48.496Z,59.30
2018-05-08T13:02:15.927Z,58.20
2018-05-08T13:04:43.341Z,56.80
2018-05-08T13:07:10.783Z,55.60
2018-05-08T13:09:39.423Z,55.40
2018-05-08T13:12:08.569Z,55.10
2018-05-08T13:14:35.978Z,55.00
2018-05-08T13:17:03.395Z,54.80
2018-05-08T13:19:30.997Z,54.10
2018-05-08T13:21:58.431Z,53.20
2018-05-08T13:24:26.011Z,51.90
2018-05-08T13:26:54.256Z,52.70
2018-05-08T13:29:22.443Z,51.90
2018-05-08T13:31:49.952Z,51.90
2018-05-08T13:34:17.425Z,51.20
2018-05-08T13:36:44.884Z,51.20
2018-05-08T13:39:12.352Z,51.40
2018-05-08T13:41:39.825Z,51.60
2018-05-08T13:44:08.328Z,52.10
2018-05-08T13:46:35.782Z,52.10
2018-05-08T13:49:03.256Z,51.10
2018-05-08T13:51:30.740Z,51.60
2018-05-08T13:53:58.155Z,50.30
2018-05-08T13:56:26.384Z,50.20
2018-05-08T13:58:53.801Z,50.10
2018-05-08T14:01:21.222Z,50.40
2018-05-08T14:03:48.695Z,49.00
2018-05-08T14:06:16.108Z,48.20
2018-05-08T14:08:43.622Z,48.20
2018-05-08T14:11:11.052Z,48.20
2018-05-08T14:13:38.554Z,48.50
2018-05-08T14:16:05.989Z,48.50
2018-05-08T14:18:33.422Z,48.50
2018-05-08T14:21:00.873Z,48.30
2018-05-08T14:23:28.280Z,49.00
2018-05-08T14:25:55.833Z,49.60
2018-05-08T14:28:23.545Z,48.80
2018-05-08T14:30:51.732Z,47.20
2018-05-08T14:33:19.927Z,47.50
2018-05-08T14:35:48.091Z,47.30
2018-05-08T14:38:15.611Z,47.30
2018-05-08T14:40:43.049Z,46.70
2018-05-08T14:43:11.453Z,46.50
2018-05-08T14:45:38.925Z,46.60
2018-05-08T14:48:07.096Z,45.70
2018-05-08T14:50:35.346Z,45.80
2018-05-08T14:53:02.838Z,45.80
2018-05-08T14:55:30.380Z,45.30
2018-05-08T14:57:57.809Z,45.80
2018-05-08T15:00:25.285Z,46.50
2018-05-08T15:02:53.578Z,46.90
2018-05-08T15:05:21.724Z,47.60
2018-05-08T15:07:49.913Z,47.50
2018-05-08T15:10:18.092Z,47.70
2018-05-08T15:12:46.366Z,47.60
2018-05-08T15:15:13.885Z,47.50
2018-05-08T15:17:42.163Z,47.60
2018-05-08T15:20:09.688Z,47.60
2018-05-08T15:22:37.118Z,47.60
2018-05-08T15:25:04.523Z,47.70
2018-05-08T15:27:31.952Z,48.00
2018-05-08T15:29:59.379Z,48.40
2018-05-08T15:32:26.828Z,48.10
2018-05-08T15:34:54.241Z,48.10
2018-05-08T15:37:22.421Z,48.20
2018-05-08T15:39:50.621Z,47.90
2018-05-08T15:42:18.076Z,47.90
2018-05-08T15:44:46.273Z,49.30
2018-05-08T15:47:13.733Z,49.20
2018-05-08T15:49:42.824Z,49.60
2018-05-08T15:52:10.288Z,49.10
2018-05-08T15:54:37.695Z,50.10
2018-05-08T15:57:05.170Z,50.50
2018-05-08T15:59:32.731Z,50.40
2018-05-08T16:02:00.160Z,50.90
2018-05-08T16:04:27.693Z,51.10
2018-05-08T16:06:55.088Z,51.10
2018-05-08T16:09:22.515Z,51.00
2018-05-08T16:11:49.917Z,50.90
2018-05-08T16:14:17.340Z,51.10
2018-05-08T16:16:44.789Z,51.30
2018-05-08T16:19:12.524Z,51.50
2018-05-08T16:21:39.969Z,51.80
2018-05-08T16:24:07.368Z,52.00
2018-05-08T16:26:34.811Z,51.90
2018-05-08T16:29:02.222Z,52.00
2018-05-08T16:31:30.408Z,53.60
2018-05-08T16:33:57.824Z,53.00
2018-05-08T16:36:25.278Z,53.30
2018-05-08T16:38:53.450Z,53.60
2018-05-08T16:41:21.630Z,53.80
2018-05-08T16:43:49.847Z,54.20
2018-05-08T16:46:18.016Z,54.00
2018-05-08T16:48:46.193Z,54.30
2018-05-08T16:51:14.386Z,54.40
2018-05-08T16:53:43.496Z,54.50
2018-05-08T16:56:11.000Z,54.50
2018-05-08T16:58:38.409Z,54.40
2018-05-08T17:01:06.585Z,54.90
2018-05-08T17:03:34.013Z,54.50
2018-05-08T17:06:01.456Z,54.50
2018-05-08T17:08:28.877Z,54.60
2018-05-08T17:10:56.318Z,54.50
2018-05-08T17:13:23.816Z,54.50
2018-05-08T17:15:51.291Z,54.70
2018-05-08T17:18:18.700Z,54.70
2018-05-08T17:20:46.192Z,54.90
2018-05-08T17:23:14.538Z,54.80
2018-05-08T17:25:43.714Z,55.00
2018-05-08T17:28:11.894Z,55.20
2018-05-08T17:30:39.354Z,55.20
2018-05-08T17:33:06.933Z,54.90
2018-05-08T17:35:34.401Z,54.90
2018-05-08T17:38:01.853Z,55.00
2018-05-08T17:40:29.307Z,55.10
2018-05-08T17:42:56.904Z,55.20
2018-05-08T17:45:24.316Z,55.40
2018-05-08T17:47:52.030Z,55.40
2018-05-08T17:50:20.234Z,55.90
2018-05-08T17:52:47.640Z,55.80
2018-05-08T17:55:15.084Z,55.80
2018-05-08T17:57:42.500Z,56.00
2018-05-08T18:00:10.812Z,56.20
2018-05-08T18:02:38.272Z,56.20
2018-05-08T18:05:05.779Z,56.40
2018-05-08T18:07:33.229Z,56.70
2018-05-08T18:10:00.650Z,56.70
2018-05-08T18:12:28.063Z,56.90
2018-05-08T18:14:55.474Z,57.20
2018-05-08T18:17:23.183Z,57.70
2018-05-08T18:19:50.504Z,58.00
2018-05-08T18:22:17.927Z,58.30
2018-05-08T18:24:45.340Z,58.50
2018-05-08T18:27:12.775Z,58.60
2018-05-08T18:29:40.238Z,58.90
2018-05-08T18:32:07.712Z,59.10
2018-05-08T18:34:35.172Z,59.50
2018-05-08T18:37:02.747Z,59.80
2018-05-08T18:39:30.161Z,60.00
2018-05-08T18:41:57.689Z,60.50
2018-05-08T18:44:25.157Z,60.80
2018-05-08T18:46:52.576Z,60.80
2018-05-08T18:51:45.553Z,61.30
2018-05-08T18:54:12.989Z,61.50
2018-05-08T18:56:40.444Z,61.70
2018-05-08T18:59:08.628Z,62.20
2018-05-08T19:01:36.047Z,62.20
2018-05-08T19:04:03.467Z,62.40
2018-05-08T19:06:31.805Z,62.40
2018-05-08T19:08:59.228Z,62.40
2018-05-08T19:11:32.346Z,62.50
2018-05-08T19:13:59.803Z,62.50
2018-05-08T19:16:27.260Z,62.60
2018-05-08T19:19:01.180Z,63.80
2018-05-08T19:21:28.649Z,62.90
2018-05-08T19:24:02.637Z,63.30
2018-05-08T19:26:30.107Z,63.30
2018-05-08T19:29:03.085Z,63.80
2018-05-08T19:31:30.539Z,64.00
2018-05-08T19:33:58.095Z,64.30
2018-05-08T19:36:31.326Z,64.50
2018-05-08T19:38:58.743Z,64.80
2018-05-08T19:41:26.931Z,65.20
2018-05-08T19:43:55.113Z,65.40
2018-05-08T19:46:23.309Z,65.50
2018-05-08T19:48:51.509Z,65.80
2018-05-08T19:51:18.920Z,65.70
2018-05-08T19:53:46.883Z,66.00
2018-05-08T19:56:14.325Z,66.20
2018-05-08T19:58:41.797Z,66.50
2018-05-08T20:01:09.252Z,66.70
2018-05-08T20:03:36.757Z,66.80
2018-05-08T20:06:04.168Z,66.90
2018-05-08T20:08:32.362Z,67.40
2018-05-08T20:10:59.865Z,67.30
2018-05-08T20:13:27.450Z,67.50
2018-05-08T20:15:54.887Z,67.70
2018-05-08T20:18:23.065Z,68.10
2018-05-08T20:20:51.247Z,68.20
2018-05-08T20:23:19.428Z,68.30
2018-05-08T20:25:48.150Z,68.60
2018-05-08T20:28:15.617Z,68.50
2018-05-08T20:30:43.078Z,68.70
2018-05-08T20:33:10.453Z,68.90
2018-05-08T20:35:37.872Z,69.10
2018-05-08T20:38:05.284Z,69.30
2018-05-08T20:40:32.766Z,69.60
2018-05-08T20:43:00.171Z,69.70
2018-05-08T20:45:27.597Z,69.90
2018-05-08T20:47:55.014Z,70.20
2018-05-08T20:50:22.471Z,70.40
2018-05-08T20:52:49.872Z,70.40
2018-05-08T20:55:18.688Z,71.00
2018-05-08T20:57:47.888Z,71.30
2018-05-08T21:00:16.092Z,71.50
2018-05-08T21:02:43.569Z,71.50
2018-05-08T21:05:11.053Z,72.60
2018-05-08T21:07:38.576Z,71.80
2018-05-08T21:10:06.914Z,72.40
2018-05-08T21:12:34.338Z,72.20
2018-05-08T21:15:01.751Z,72.60
2018-05-08T21:17:29.160Z,72.70
2018-05-08T21:19:56.572Z,73.00
2018-05-08T21:22:23.997Z,73.10
2018-05-08T21:24:52.941Z,73.60
2018-05-08T21:27:20.362Z,73.50
2018-05-08T21:29:54.271Z,73.80
2018-05-08T21:32:21.698Z,74.00
2018-05-08T21:34:49.124Z,74.30
2018-05-08T21:37:16.536Z,74.60
2018-05-08T21:39:44.067Z,74.90
2018-05-08T21:42:11.472Z,75.40
2018-05-08T21:44:38.892Z,75.80
2018-05-08T21:47:06.334Z,76.40
2018-05-08T21:49:33.757Z,76.60
2018-05-08T21:52:01.218Z,77.10
2018-05-08T21:54:28.636Z,77.40
2018-05-08T21:56:56.090Z,77.80
2018-05-08T21:59:23.669Z,78.20
2018-05-08T22:01:51.124Z,78.50
2018-05-08T22:04:19.998Z,78.90
2018-05-08T22:06:47.454Z,78.80
2018-05-08T22:09:14.867Z,79.10
2018-05-08T22:11:42.277Z,79.60
2018-05-08T22:14:09.693Z,79.80
2018-05-08T22:16:37.104Z,80.00
2018-05-08T22:19:04.534Z,80.20
2018-05-08T22:21:32.003Z,80.40
2018-05-08T22:24:00.177Z,81.30
2018-05-08T22:26:29.345Z,81.70
2018-05-08T22:28:56.812Z,81.60
2018-05-08T22:31:24.271Z,82.10
2018-05-08T22:33:51.833Z,82.30
2018-05-08T22:51:26.793Z,85.50
2018-05-08T22:53:55.001Z,86.80
2018-05-08T22:56:22.416Z,86.80
2018-05-08T22:58:49.916Z,87.70
2018-05-08T23:01:17.368Z,88.60
2018-05-08T23:03:44.828Z,88.90
2018-05-08T23:06:12.242Z,89.70
2018-05-08T23:08:39.663Z,90.10
2018-05-08T23:11:07.130Z,91.00
2018-05-08T23:13:34.557Z,91.90
2018-05-08T23:16:02.066Z,92.50
2018-05-08T23:18:29.472Z,92.80
2018-05-08T23:20:56.892Z,93.20
2018-05-08T23:23:24.353Z,93.90
2018-05-08T23:25:52.520Z,94.20
2018-05-08T23:28:21.689Z,94.30
2018-05-08T23:30:49.114Z,94.60
2018-05-08T23:33:17.303Z,95.60
2018-05-08T23:35:44.734Z,95.60
2018-05-08T23:38:12.140Z,96.10
2018-05-08T23:40:39.613Z,96.50
2018-05-08T23:43:07.095Z,97.10
2018-05-08T23:45:34.563Z,97.60
2018-05-08T23:48:02.054Z,98.10
2018-05-08T23:50:29.457Z,98.70
2018-05-08T23:52:56.890Z,99.20
2018-05-08T23:55:24.295Z,99.90
2018-05-08T23:57:51.920Z,99.90
